Mato Leitao, Brazil
Current Conditions -  °F | °C
As of 7:00 AM on Saturday 25 Oct 2014 (Local Time) from SBPA Reporting Station
Broken Clouds Broken Clouds  
Wind Chill: 68°   Ceiling: 1100
Heat Index: 68°   Visibility: 5mi
Dew Point: 64°   Wind: 2mph
Humidity: 88%   Direction: 110°ESE
Pressure: 29.88"   Gusts: NA
Location:  29.52°S, 52.13°W
Report Text: SBPA 250900Z 11002KT 8000 BKN011 20/18 Q1012
Loading
Personal Weather Stations






























Interactive Weather Map
Tropical Storm Tracking
New forecast layout! Learn more

10-Day Weather Forecast

Advertisements
Track Severe Weather on mobile